Time;durP1;ratioP1;P1;durP2;ratioP2;P2;SDS_P1;SDS_P2;PMS_P1;PMS_P2;Temp;Humidity;BMP_temperature;BMP_pressure;BME280_temperature;BME280_humidity;BME280_pressure;Samples;Min_cycle;Max_cycle;Signal;HPM_P1;HPM_P2
2023/03/08 00:00:25;;;;;;;22.90;15.80;;;;;;;4.72;100.00;97162.54;109676;1250;59052;-73
2023/03/08 00:03:15;;;;;;;19.90;14.80;;;;;;;4.73;100.00;97164.20;109674;1250;58997;-73
2023/03/08 00:05:42;;;;;;;19.90;14.30;;;;;;;4.75;100.00;97167.27;109667;1250;67161;-73
2023/03/08 00:08:08;;;;;;;21.10;13.60;;;;;;;4.76;100.00;97170.31;109674;1250;61279;-73
2023/03/08 00:10:36;;;;;;;22.80;14.50;;;;;;;4.78;100.00;97169.48;109634;1250;65059;-73
2023/03/08 00:13:02;;;;;;;20.50;15.30;;;;;;;4.79;100.00;97171.17;109478;1250;58979;-74
2023/03/08 00:15:29;;;;;;;23.70;15.10;;;;;;;4.79;100.00;97172.77;109662;1250;58892;-73
2023/03/08 00:17:56;;;;;;;20.00;14.70;;;;;;;4.79;100.00;97181.86;109664;1250;66093;-73
2023/03/08 00:20:22;;;;;;;20.30;14.60;;;;;;;4.79;100.00;97176.23;109663;1250;60706;-74
2023/03/08 00:22:49;;;;;;;21.30;15.80;;;;;;;4.80;100.00;97163.90;109668;1250;65055;-73
2023/03/08 00:25:16;;;;;;;20.60;15.70;;;;;;;4.78;100.00;97165.21;109608;1250;58951;-73
2023/03/08 00:27:42;;;;;;;19.90;12.90;;;;;;;4.77;100.00;97153.72;109487;1250;59131;-74
2023/03/08 00:30:12;;;;;;;19.90;15.20;;;;;;;4.76;100.00;97150.45;109633;1250;67013;-73
2023/03/08 00:32:39;;;;;;;20.50;15.00;;;;;;;4.76;100.00;97156.05;109655;1250;60061;-73
2023/03/08 00:35:06;;;;;;;21.40;15.90;;;;;;;4.77;100.00;97156.89;109622;1250;64716;-73
2023/03/08 00:37:33;;;;;;;23.40;16.10;;;;;;;4.77;100.00;97158.81;109343;1251;59078;-72
2023/03/08 00:40:00;;;;;;;21.20;16.50;;;;;;;4.77;100.00;97160.05;109630;1253;59050;-74
2023/03/08 00:42:27;;;;;;;20.90;15.20;;;;;;;4.75;100.00;97160.18;109640;1250;64927;-73
2023/03/08 00:44:53;;;;;;;21.40;16.30;;;;;;;4.74;100.00;97158.48;109672;1250;60233;-73
2023/03/08 00:47:20;;;;;;;19.90;15.30;;;;;;;4.73;100.00;97154.04;109654;1250;64873;-73
2023/03/08 00:49:46;;;;;;;21.80;15.20;;;;;;;4.73;100.00;97154.55;109632;1250;58982;-73
2023/03/08 00:52:13;;;;;;;23.20;15.40;;;;;;;4.72;100.00;97158.82;109661;1250;59725;-73
2023/03/08 00:54:39;;;;;;;22.90;15.50;;;;;;;4.72;100.00;97159.69;109668;1250;66792;-73
2023/03/08 00:57:06;;;;;;;22.10;15.70;;;;;;;4.73;100.00;97159.98;109669;1250;61060;-72
2023/03/08 00:59:33;;;;;;;20.90;16.40;;;;;;;4.74;100.00;97163.63;109628;1253;63839;-73
2023/03/08 01:02:00;;;;;;;19.60;14.90;;;;;;;4.75;100.00;97165.29;109603;1250;59047;-73
2023/03/08 01:04:32;;;;;;;23.10;15.30;;;;;;;4.76;100.00;97162.41;109637;1250;58966;-72
2023/03/08 01:06:59;;;;;;;22.70;17.10;;;;;;;4.75;100.00;97164.21;109612;1250;65664;-73
2023/03/08 01:09:26;;;;;;;22.90;16.30;;;;;;;4.75;100.00;97166.35;109350;1250;59843;-73
2023/03/08 01:11:53;;;;;;;22.50;16.50;;;;;;;4.75;100.00;97167.61;109679;1250;63717;-72
2023/03/08 01:14:19;;;;;;;22.20;15.50;;;;;;;4.74;100.00;97168.38;109628;1250;58993;-73
2023/03/08 01:16:46;;;;;;;23.00;15.90;;;;;;;4.74;100.00;97169.63;109632;1251;58967;-72
2023/03/08 01:19:12;;;;;;;20.70;15.10;;;;;;;4.73;100.00;97167.59;109355;1250;66853;-72
2023/03/08 01:21:39;;;;;;;20.70;15.90;;;;;;;4.72;100.00;97169.73;109641;1254;59717;-73
2023/03/08 01:24:06;;;;;;;19.70;14.80;;;;;;;4.71;100.00;97172.45;109623;1251;63957;-73
2023/03/08 01:26:32;;;;;;;21.40;16.20;;;;;;;4.70;100.00;97176.92;109643;1250;58958;-73
2023/03/08 01:28:59;;;;;;;21.70;16.20;;;;;;;4.69;100.00;97178.45;109655;1251;58859;-71
2023/03/08 01:31:30;;;;;;;22.70;15.70;;;;;;;4.67;100.00;97182.10;109631;1250;65648;-71
2023/03/08 01:33:57;;;;;;;;;;;;;;;4.63;100.00;97177.10;109389;1250;61277;-72
2023/03/08 01:36:25;;;;;;;21.20;15.40;;;;;;;4.60;100.00;97176.93;109650;1251;65093;-72
2023/03/08 01:38:53;;;;;;;24.00;16.60;;;;;;;4.59;100.00;97178.58;109600;1254;59017;-71
2023/03/08 01:41:26;;;;;;;23.50;17.90;;;;;;;4.59;100.00;97174.89;109548;1251;59441;-71
2023/03/08 01:43:53;;;;;;;21.00;16.20;;;;;;;4.57;100.00;97173.94;109663;1250;65845;-71
2023/03/08 01:46:26;;;;;;;20.20;16.30;;;;;;;4.56;100.00;97175.61;109667;1250;61134;-72
2023/03/08 01:49:04;;;;;;;21.30;16.50;;;;;;;4.53;100.00;97175.81;109641;1251;64775;-71
2023/03/08 01:51:39;;;;;;;20.20;14.20;;;;;;;4.50;100.00;97173.06;109616;1251;58931;-72
2023/03/08 01:54:14;;;;;;;20.20;15.90;;;;;;;4.46;100.00;97169.48;109637;1250;59115;-72
2023/03/08 01:56:43;;;;;;;21.90;16.80;;;;;;;4.42;100.00;97170.70;109656;1250;65665;-72
2023/03/08 01:59:10;;;;;;;18.00;15.20;;;;;;;4.37;100.00;97170.98;109458;1253;59930;-72
2023/03/08 02:01:38;;;;;;;19.70;14.80;;;;;;;4.35;100.00;97172.56;109574;1251;63672;-73
2023/03/08 02:04:06;;;;;;;22.30;16.20;;;;;;;4.33;100.00;97175.72;109669;1250;59105;-74
2023/03/08 02:06:32;;;;;;;19.40;15.80;;;;;;;4.30;100.00;97176.07;109346;1251;59074;-74
2023/03/08 02:09:03;;;;;;;22.50;17.30;;;;;;;4.29;100.00;97175.84;109612;1250;66926;-73
2023/03/08 02:11:33;;;;;;;19.60;14.80;;;;;;;4.26;100.00;97170.17;109176;1251;59071;-74
2023/03/08 02:13:59;;;;;;;18.80;14.00;;;;;;;4.26;100.00;97169.71;109287;1251;65588;-73
2023/03/08 02:16:26;;;;;;;20.90;16.00;;;;;;;4.24;100.00;97169.98;109594;1251;58956;-74
2023/03/08 02:19:02;;;;;;;20.70;15.60;;;;;;;4.24;100.00;97165.79;109658;1251;59029;-73
2023/03/08 02:21:30;;;;;;;17.00;13.80;;;;;;;4.22;100.00;97158.17;109662;1251;66786;-74
2023/03/08 02:24:17;;;;;;;19.40;13.90;;;;;;;4.22;100.00;97162.74;109681;1251;60453;-73
2023/03/08 02:26:44;;;;;;;20.00;15.50;;;;;;;4.21;100.00;97168.98;109668;1251;64813;-73
2023/03/08 02:29:11;;;;;;;18.90;15.10;;;;;;;4.20;100.00;97166.75;109392;1251;58984;-74
2023/03/08 02:31:37;;;;;;;24.50;17.90;;;;;;;4.18;100.00;97161.98;109686;1250;58935;-73
2023/03/08 02:34:04;;;;;;;21.40;15.10;;;;;;;4.16;100.00;97161.95;109631;1250;64503;-74
2023/03/08 02:36:31;;;;;;;20.50;15.00;;;;;;;4.16;100.00;97160.55;109699;1250;60702;-74
2023/03/08 02:38:57;;;;;;;20.00;14.70;;;;;;;4.16;100.00;97163.48;108530;1256;1002078;-74
2023/03/08 02:41:24;;;;;;;18.30;13.90;;;;;;;4.16;100.00;97162.13;109516;1251;59038;-74
2023/03/08 02:43:51;;;;;;;22.80;15.00;;;;;;;4.18;100.00;97163.40;109561;1251;58823;-74
2023/03/08 02:46:17;;;;;;;20.60;15.20;;;;;;;4.19;100.00;97164.57;109559;1251;65642;-74
2023/03/08 02:48:45;;;;;;;21.10;14.90;;;;;;;4.18;100.00;97163.89;109558;1251;60183;-73
2023/03/08 02:51:12;;;;;;;18.70;14.30;;;;;;;4.17;100.00;97163.06;109510;1251;63696;-74
2023/03/08 02:53:38;;;;;;;17.50;13.00;;;;;;;4.17;100.00;97162.40;109573;1251;59006;-74
2023/03/08 02:56:05;;;;;;;18.00;13.00;;;;;;;4.16;100.00;97160.89;109584;1251;59031;-74
2023/03/08 02:58:32;;;;;;;19.00;13.60;;;;;;;4.16;100.00;97163.55;109572;1251;66063;-74
2023/03/08 03:00:58;;;;;;;19.40;13.60;;;;;;;4.15;100.00;97169.25;109518;1251;60751;-74
2023/03/08 03:03:25;;;;;;;17.20;13.70;;;;;;;4.15;100.00;97169.26;109554;1251;65170;-73
2023/03/08 03:05:52;;;;;;;17.10;14.10;;;;;;;4.15;100.00;97172.94;109513;1251;59326;-74
2023/03/08 03:08:18;;;;;;;19.90;13.90;;;;;;;4.15;100.00;97182.07;109529;1251;58928;-74
2023/03/08 03:10:45;;;;;;;18.90;14.40;;;;;;;4.15;100.00;97186.41;109490;1251;66684;-74
2023/03/08 03:13:11;;;;;;;18.30;13.80;;;;;;;4.17;100.00;97188.61;109551;1251;60875;-73
2023/03/08 03:15:39;;;;;;;17.50;13.30;;;;;;;4.16;100.00;97195.84;109538;1251;64980;-73
2023/03/08 03:18:05;;;;;;;18.60;13.40;;;;;;;4.16;100.00;97199.89;109532;1251;59008;-74
2023/03/08 03:20:33;;;;;;;20.10;13.40;;;;;;;4.16;100.00;97204.96;109514;1251;59050;-73
2023/03/08 03:22:59;;;;;;;18.70;14.40;;;;;;;4.18;100.00;97206.80;109280;1251;65636;-74
2023/03/08 03:25:26;;;;;;;18.30;13.90;;;;;;;4.18;100.00;97213.98;109552;1251;60763;-74
2023/03/08 03:27:54;;;;;;;16.30;12.60;;;;;;;4.18;100.00;97217.48;109496;1251;64720;-74
2023/03/08 03:30:21;;;;;;;18.60;12.80;;;;;;;4.19;100.00;97222.04;109502;1251;59021;-74
2023/03/08 03:32:47;;;;;;;17.70;13.20;;;;;;;4.20;100.00;97224.25;109500;1251;59023;-74
2023/03/08 03:35:14;;;;;;;16.80;13.50;;;;;;;4.20;100.00;97230.22;109545;1251;66157;-74
2023/03/08 03:37:41;;;;;;;18.90;12.80;;;;;;;4.18;99.85;97231.37;109595;1250;60743;-74
2023/03/08 03:40:09;;;;;;;17.20;11.30;;;;;;;4.17;99.16;97233.55;109317;1251;64978;-74
2023/03/08 03:42:36;;;;;;;16.60;12.30;;;;;;;4.18;98.29;97236.31;109641;1251;58925;-73
2023/03/08 03:45:03;;;;;;;13.80;10.80;;;;;;;4.20;98.17;97239.40;109657;1250;59077;-74
2023/03/08 03:47:30;;;;;;;16.70;11.10;;;;;;;4.20;97.70;97242.40;109690;1251;67155;-73
2023/03/08 03:49:56;;;;;;;15.70;11.60;;;;;;;4.21;97.38;97247.07;109665;1251;60529;-74
2023/03/08 03:52:23;;;;;;;15.20;10.70;;;;;;;4.22;96.83;97251.90;109465;1251;62567;-74
2023/03/08 03:54:49;;;;;;;14.60;10.20;;;;;;;4.22;96.38;97258.72;109612;1251;59022;-74
2023/03/08 03:57:18;;;;;;;14.50;10.30;;;;;;;4.24;95.24;97262.66;109639;1251;58974;-74
2023/03/08 03:59:44;;;;;;;11.80;9.50;;;;;;;4.26;95.30;97270.80;109651;1250;67002;-74
2023/03/08 04:02:11;;;;;;;13.30;10.10;;;;;;;4.26;94.69;97279.89;109642;1251;60732;-74
2023/03/08 04:04:38;;;;;;;12.30;9.00;;;;;;;4.27;94.63;97283.71;109658;1251;64022;-74
2023/03/08 04:07:04;;;;;;;13.70;9.20;;;;;;;4.27;93.92;97283.34;109607;1251;59054;-74
2023/03/08 04:09:31;;;;;;;11.10;9.20;;;;;;;4.28;93.77;97287.13;109676;1251;59008;-74
2023/03/08 04:12:01;;;;;;;12.90;9.70;;;;;;;4.28;93.15;97283.96;109671;1250;66685;-74
2023/03/08 04:14:27;;;;;;;;;;;;;;;4.28;92.77;97285.92;109665;1251;60088;-74
2023/03/08 04:16:54;;;;;;;15.10;10.50;;;;;;;4.28;92.59;97289.79;109644;1251;64797;-74
2023/03/08 04:19:21;;;;;;;12.70;9.20;;;;;;;4.28;92.77;97295.10;109601;1251;58924;-74
2023/03/08 04:21:47;;;;;;;14.50;10.20;;;;;;;4.26;92.54;97295.54;109662;1250;58875;-74
2023/03/08 04:24:14;;;;;;;11.90;9.10;;;;;;;4.26;91.58;97300.30;109659;1251;65627;-74
2023/03/08 04:26:41;;;;;;;11.40;8.90;;;;;;;4.26;91.90;97302.39;109682;1250;59769;-74
2023/03/08 04:29:07;;;;;;;13.10;9.60;;;;;;;4.25;91.77;97297.92;109612;1251;64712;-74
2023/03/08 04:31:34;;;;;;;12.20;8.50;;;;;;;4.25;91.22;97297.59;109630;1251;59042;-74
2023/03/08 04:34:02;;;;;;;12.70;9.50;;;;;;;4.25;91.39;97298.27;109653;1250;58885;-74
2023/03/08 04:36:29;;;;;;;13.80;10.50;;;;;;;4.24;90.91;97303.42;109569;1250;66031;-74
2023/03/08 04:38:56;;;;;;;13.40;9.80;;;;;;;4.23;91.02;97300.70;109613;1251;60744;-74
2023/03/08 04:41:23;;;;;;;12.60;10.20;;;;;;;4.21;91.19;97303.63;109596;1254;63698;-74
2023/03/08 04:43:52;;;;;;;13.80;10.00;;;;;;;4.20;90.50;97299.16;109566;1250;58967;-74
2023/03/08 04:46:21;;;;;;;13.80;9.60;;;;;;;4.19;90.87;97298.50;109649;1250;58867;-73
2023/03/08 04:48:51;;;;;;;13.70;9.00;;;;;;;4.16;91.00;97293.94;109682;1250;66654;-74
2023/03/08 04:51:19;;;;;;;12.00;9.20;;;;;;;4.14;90.39;97294.63;109631;1250;61247;-74
2023/03/08 04:53:46;;;;;;;13.60;8.80;;;;;;;4.12;90.76;97303.16;109656;1251;63980;-74
2023/03/08 04:56:14;;;;;;;11.20;8.60;;;;;;;4.10;90.72;97308.05;109634;1251;58958;-74
2023/03/08 04:58:41;;;;;;;12.90;9.30;;;;;;;4.09;90.59;97303.91;109692;1250;58933;-74
2023/03/08 05:01:19;;;;;;;13.10;9.80;;;;;;;4.08;90.64;97305.73;109628;1250;67376;-74
2023/03/08 05:03:48;;;;;;;13.40;9.50;;;;;;;4.07;90.29;97317.79;109655;1250;61052;-76
2023/03/08 05:06:15;;;;;;;13.40;9.10;;;;;;;4.07;90.16;97315.15;109620;1250;64743;-71
2023/03/08 05:08:42;;;;;;;12.20;8.80;;;;;;;4.07;90.39;97309.69;109599;1250;59002;-71
2023/03/08 05:11:09;;;;;;;10.30;8.60;;;;;;;4.06;90.52;97304.10;109577;1250;58933;-71
2023/03/08 05:13:37;;;;;;;13.90;9.10;;;;;;;4.05;90.36;97306.28;109630;1250;67316;-71
2023/03/08 05:16:06;;;;;;;10.20;7.90;;;;;;;4.04;90.61;97309.67;109431;1251;59767;-71
2023/03/08 05:18:34;;;;;;;13.30;8.80;;;;;;;4.03;90.53;97314.32;108930;1250;1002443;-71
2023/03/08 05:21:07;;;;;;;13.30;9.50;;;;;;;4.03;90.34;97312.61;109541;1250;58965;-72
2023/03/08 05:23:33;;;;;;;10.70;8.70;;;;;;;4.02;90.39;97322.35;109631;1250;59061;-71
2023/03/08 05:26:01;;;;;;;11.20;9.40;;;;;;;4.01;90.22;97328.52;109655;1250;67018;-71
2023/03/08 05:28:30;;;;;;;12.40;8.00;;;;;;;4.02;90.34;97328.09;109640;1250;61388;-70
2023/03/08 05:31:06;;;;;;;12.10;8.30;;;;;;;4.03;90.49;97324.56;109662;1250;65261;-70
2023/03/08 05:33:34;;;;;;;10.30;7.60;;;;;;;4.02;90.15;97323.00;109579;1250;59157;-70
2023/03/08 05:36:01;;;;;;;12.50;8.10;;;;;;;4.03;90.30;97318.04;109654;1250;58978;-70
2023/03/08 05:38:28;;;;;;;10.20;8.80;;;;;;;4.03;90.37;97310.64;109635;1250;66685;-70
2023/03/08 05:41:02;;;;;;;11.60;8.50;;;;;;;4.03;90.10;97318.39;109674;1250;60696;-71
2023/03/08 05:43:29;;;;;;;13.70;8.70;;;;;;;4.03;89.99;97329.97;109569;1250;65301;-71
2023/03/08 05:46:03;;;;;;;16.70;9.20;;;;;;;4.06;89.47;97331.74;109561;1251;59007;-71
2023/03/08 05:48:30;;;;;;;10.70;8.30;;;;;;;4.08;89.61;97327.86;109392;1250;59105;-72
2023/03/08 05:50:57;;;;;;;12.40;9.60;;;;;;;4.10;89.66;97326.69;109663;1250;65434;-72
2023/03/08 05:53:24;;;;;;;13.90;8.40;;;;;;;4.11;89.61;97332.61;109651;1250;60722;-71
2023/03/08 05:55:51;;;;;;;13.00;8.70;;;;;;;4.12;89.34;97330.23;109603;1250;64810;-70
2023/03/08 05:58:18;;;;;;;11.70;9.00;;;;;;;4.15;89.29;97332.13;109632;1250;59022;-71
2023/03/08 06:00:44;;;;;;;14.80;8.60;;;;;;;4.20;89.24;97338.00;109367;1250;59146;-71
2023/03/08 06:03:11;;;;;;;12.00;9.00;;;;;;;4.23;89.14;97343.20;109612;1250;66795;-70
2023/03/08 06:05:38;;;;;;;14.00;9.30;;;;;;;4.27;89.31;97351.94;109624;1250;60852;-71
2023/03/08 06:08:04;;;;;;;14.10;9.90;;;;;;;4.30;89.15;97355.36;109676;1250;65216;-71
2023/03/08 06:10:31;;;;;;;13.20;9.30;;;;;;;4.34;88.87;97353.53;109609;1250;58981;-71
2023/03/08 06:12:58;;;;;;;13.70;9.30;;;;;;;4.38;88.73;97362.23;109672;1250;58847;-71
2023/03/08 06:15:24;;;;;;;13.50;9.10;;;;;;;4.40;88.69;97370.70;109631;1250;66677;-71
2023/03/08 06:17:52;;;;;;;11.90;9.50;;;;;;;4.44;88.64;97371.19;109619;1250;60740;-71
2023/03/08 06:20:19;;;;;;;10.10;7.90;;;;;;;4.48;88.40;97374.38;109593;1250;64838;-71
2023/03/08 06:22:46;;;;;;;11.90;8.90;;;;;;;4.53;88.01;97369.14;109600;1250;58939;-71
2023/03/08 06:25:13;;;;;;;9.40;7.40;;;;;;;4.58;88.22;97372.79;109606;1250;58888;-71
2023/03/08 06:27:40;;;;;;;11.30;7.90;;;;;;;4.65;88.02;97381.70;109649;1250;66622;-71
2023/03/08 06:30:07;;;;;;;10.00;8.60;;;;;;;4.69;87.87;97387.74;109609;1250;59684;-71
2023/03/08 06:32:36;;;;;;;10.00;7.30;;;;;;;4.73;87.88;97392.01;109396;1250;64833;-71
2023/03/08 06:35:03;;;;;;;12.50;8.70;;;;;;;4.77;87.40;97398.80;109584;1250;59075;-71
2023/03/08 06:37:33;;;;;;;10.90;7.90;;;;;;;4.79;87.59;97404.65;109398;1250;59022;-71
2023/03/08 06:40:00;;;;;;;9.80;7.60;;;;;;;4.78;87.43;97414.05;109609;1250;66815;-71
2023/03/08 06:42:27;;;;;;;9.00;7.40;;;;;;;4.72;87.39;97424.27;109659;1250;60744;-71
2023/03/08 06:44:54;;;;;;;10.40;7.80;;;;;;;4.69;87.18;97424.88;109581;1250;64713;-71
2023/03/08 06:47:20;;;;;;;12.10;8.50;;;;;;;4.68;87.35;97427.89;109644;1250;58944;-71
2023/03/08 06:49:47;;;;;;;10.50;7.90;;;;;;;4.77;87.28;97432.72;109640;1250;59041;-71
2023/03/08 06:52:13;;;;;;;10.10;8.40;;;;;;;4.91;86.34;97434.60;109612;1250;65652;-71
2023/03/08 06:54:40;;;;;;;9.90;7.70;;;;;;;5.03;85.96;97442.04;109678;1250;60009;-71
2023/03/08 06:57:06;;;;;;;12.30;9.10;;;;;;;5.14;85.93;97438.27;109628;1250;63680;-71
2023/03/08 06:59:33;;;;;;;10.60;8.70;;;;;;;5.25;85.84;97443.02;109610;1250;58944;-71
2023/03/08 07:02:00;;;;;;;10.90;7.90;;;;;;;5.36;84.95;97444.88;109689;1250;58945;-71
2023/03/08 07:04:26;;;;;;;11.00;8.40;;;;;;;5.43;85.09;97438.14;109600;1250;65664;-71
2023/03/08 07:06:53;;;;;;;10.10;7.60;;;;;;;5.47;84.70;97437.37;109637;1250;61059;-71
2023/03/08 07:09:20;;;;;;;11.00;8.20;;;;;;;5.46;84.78;97433.05;109608;1250;64775;-71
2023/03/08 07:11:46;;;;;;;12.00;8.70;;;;;;;5.44;84.54;97427.21;109604;1250;59012;-71
2023/03/08 07:14:13;;;;;;;11.20;8.40;;;;;;;5.51;84.25;97428.13;109629;1250;59024;-71
2023/03/08 07:16:39;;;;;;;11.50;8.70;;;;;;;5.61;84.12;97435.50;109593;1250;65715;-71
2023/03/08 07:19:06;;;;;;;9.20;8.30;;;;;;;5.61;83.26;97440.05;109650;1250;61282;-71
2023/03/08 07:21:32;;;;;;;10.90;8.50;;;;;;;5.61;83.71;97441.45;109580;1250;63667;-71
2023/03/08 07:23:59;;;;;;;10.90;7.80;;;;;;;5.64;83.30;97440.88;109622;1250;58919;-71
2023/03/08 07:26:26;;;;;;;9.00;7.40;;;;;;;5.67;82.58;97438.38;109612;1250;58968;-71
2023/03/08 07:28:52;;;;;;;10.10;8.20;;;;;;;5.65;82.57;97441.91;109364;1250;66025;-71
2023/03/08 07:31:19;;;;;;;9.30;8.30;;;;;;;5.62;83.03;97445.78;109667;1250;60680;-71
2023/03/08 07:33:46;;;;;;;12.20;8.60;;;;;;;5.68;83.35;97443.28;109632;1250;64017;-71
2023/03/08 07:36:12;;;;;;;11.30;8.30;;;;;;;5.79;83.29;97440.55;109564;1250;59002;-71
2023/03/08 07:38:39;;;;;;;10.40;7.90;;;;;;;5.94;82.94;97442.45;109641;1250;59107;-71
2023/03/08 07:41:06;;;;;;;11.10;8.40;;;;;;;6.13;82.83;97443.89;109619;1250;65637;-71
2023/03/08 07:43:33;;;;;;;10.40;8.20;;;;;;;6.27;82.35;97449.55;109658;1250;59905;-71
2023/03/08 07:46:01;;;;;;;11.00;8.20;;;;;;;6.27;82.10;97454.85;109628;1250;65309;-71
2023/03/08 07:48:29;;;;;;;10.90;9.00;;;;;;;6.24;81.85;97460.75;109609;1250;59348;-71
2023/03/08 07:51:05;;;;;;;9.80;8.00;;;;;;;6.33;81.71;97461.98;109639;1250;58876;-71
2023/03/08 07:53:33;;;;;;;10.70;7.70;;;;;;;6.59;81.45;97466.77;109582;1250;67304;-71
2023/03/08 07:55:59;;;;;;;11.00;8.50;;;;;;;6.87;81.48;97463.08;109644;1250;61154;-71
2023/03/08 07:58:27;;;;;;;9.80;7.70;;;;;;;7.17;80.65;97466.34;109639;1250;64037;-71
2023/03/08 08:00:54;;;;;;;10.20;8.30;;;;;;;7.33;80.12;97469.16;109591;1250;58995;-71
2023/03/08 08:03:20;;;;;;;10.00;7.30;;;;;;;7.38;78.58;97475.16;109647;1250;59027;-71
2023/03/08 08:05:47;;;;;;;10.20;7.00;;;;;;;7.32;78.16;97474.61;109637;1250;65908;-71
2023/03/08 08:08:14;;;;;;;9.50;7.50;;;;;;;7.29;78.00;97472.00;109626;1250;61694;-71
2023/03/08 08:10:42;;;;;;;10.60;7.10;;;;;;;7.34;77.55;97468.80;109645;1250;63813;-71
2023/03/08 08:13:09;;;;;;;9.00;7.20;;;;;;;7.37;76.76;97467.47;109609;1250;59124;-71
2023/03/08 08:15:35;;;;;;;9.20;7.40;;;;;;;7.35;77.66;97462.85;109624;1250;59816;-71
2023/03/08 08:18:03;;;;;;;9.00;6.90;;;;;;;7.40;77.21;97455.92;109674;1250;67189;-71
2023/03/08 08:20:29;;;;;;;8.20;7.40;;;;;;;7.42;76.74;97457.01;109627;1250;59818;-71
2023/03/08 08:22:56;;;;;;;8.10;7.00;;;;;;;7.48;76.99;97453.54;109619;1250;64050;-71
2023/03/08 08:25:23;;;;;;;9.10;7.70;;;;;;;7.58;76.02;97446.76;109639;1250;59126;-71
2023/03/08 08:27:50;;;;;;;8.40;7.40;;;;;;;7.76;75.47;97453.95;109628;1250;58912;-71
2023/03/08 08:30:17;;;;;;;10.10;8.00;;;;;;;7.92;75.35;97454.09;109338;1250;65829;-71
2023/03/08 08:32:44;;;;;;;8.50;7.50;;;;;;;8.00;74.86;97455.95;109658;1250;61097;-71
2023/03/08 08:35:10;;;;;;;8.90;7.30;;;;;;;8.10;74.82;97462.50;109608;1250;63779;-71
2023/03/08 08:37:37;;;;;;;9.40;7.10;;;;;;;8.16;73.60;97461.55;109667;1250;58990;-71
2023/03/08 08:40:30;;;;;;;8.90;7.30;;;;;;;8.10;72.96;97452.10;109690;1250;59080;-71
2023/03/08 08:42:57;;;;;;;10.10;7.40;;;;;;;7.97;72.90;97452.98;109643;1250;67089;-71
2023/03/08 08:45:23;;;;;;;9.00;7.30;;;;;;;7.86;73.80;97448.77;109647;1250;61055;-70
2023/03/08 08:47:50;;;;;;;8.90;7.00;;;;;;;7.85;73.75;97442.48;109620;1250;65209;-70
2023/03/08 08:50:17;;;;;;;8.20;7.20;;;;;;;7.91;73.60;97436.63;109580;1250;58966;-71
2023/03/08 08:52:43;;;;;;;10.10;8.20;;;;;;;7.95;72.44;97439.34;109627;1250;59029;-71
2023/03/08 08:55:10;;;;;;;10.10;8.20;;;;;;;7.92;72.39;97439.29;109654;1250;66164;-71
2023/03/08 08:57:36;;;;;;;9.00;7.20;;;;;;;7.85;72.57;97438.91;109665;1252;60789;-71
2023/03/08 09:00:08;;;;;;;9.20;7.10;;;;;;;7.94;72.73;97436.28;109624;1250;65029;-71
2023/03/08 09:02:35;;;;;;;8.80;7.30;;;;;;;8.08;72.34;97430.66;109384;1250;59046;-71
2023/03/08 09:05:02;;;;;;;8.80;7.60;;;;;;;8.16;71.56;97433.92;109627;1250;58961;-71
2023/03/08 09:07:29;;;;;;;12.70;8.60;;;;;;;8.19;71.95;97419.54;109630;1250;67265;-71
2023/03/08 09:09:56;;;;;;;8.50;7.30;;;;;;;8.24;72.83;97418.27;109678;1250;60131;-71
2023/03/08 09:12:23;;;;;;;8.30;7.00;;;;;;;8.32;72.71;97421.63;109620;1250;64847;-72
2023/03/08 09:14:50;;;;;;;9.70;8.20;;;;;;;8.40;71.94;97425.63;109679;1250;59011;-71
2023/03/08 09:17:16;;;;;;;10.80;7.40;;;;;;;8.43;71.02;97428.85;109647;1250;59005;-72
2023/03/08 09:19:43;;;;;;;8.30;7.00;;;;;;;8.46;70.77;97426.55;109666;1250;67465;-72
2023/03/08 09:22:10;;;;;;;9.40;7.60;;;;;;;8.52;71.61;97424.08;109696;1250;60958;-72
2023/03/08 09:24:37;;;;;;;7.70;6.70;;;;;;;8.60;70.59;97427.48;109649;1250;65294;-72
2023/03/08 09:27:04;;;;;;;8.60;7.20;;;;;;;8.60;69.28;97435.11;109541;1250;58979;-72
2023/03/08 09:29:32;;;;;;;8.20;6.60;;;;;;;8.59;69.52;97436.60;109655;1250;59063;-71
2023/03/08 09:31:59;;;;;;;6.90;6.20;;;;;;;8.62;69.29;97436.01;109680;1250;67198;-72
2023/03/08 09:34:26;;;;;;;9.40;6.70;;;;;;;8.77;69.66;97434.86;109673;1249;59816;-72
2023/03/08 09:36:52;;;;;;;7.30;6.50;;;;;;;9.03;69.37;97432.73;109644;1250;64231;-71
2023/03/08 09:39:19;;;;;;;10.60;7.60;;;;;;;9.19;68.59;97435.67;109573;1250;58864;-72
2023/03/08 09:41:56;;;;;;;8.00;7.00;;;;;;;9.32;68.49;97434.92;109615;1250;58931;-72
2023/03/08 09:44:46;;;;;;;9.80;7.10;;;;;;;9.53;68.34;97433.69;109482;1250;67450;-72
2023/03/08 09:47:52;;;;;;;7.60;6.90;;;;;;;9.76;68.48;97429.33;109651;1250;60227;-72
2023/03/08 09:50:31;;;;;;;8.50;6.70;;;;;;;9.92;66.06;97427.59;108987;1257;64777;-72
2023/03/08 09:53:23;;;;;;;8.30;6.00;;;;;;;10.03;65.38;97421.27;109024;1257;59072;-72
2023/03/08 09:56:02;;;;;;;7.30;6.60;;;;;;;10.07;64.32;97417.84;109082;1257;58902;-72
2023/03/08 09:58:38;;;;;;;7.80;6.10;;;;;;;10.14;65.05;97414.09;108948;1257;67429;-71
2023/03/08 10:01:38;;;;;;;6.90;6.20;;;;;;;10.34;65.29;97407.87;109046;1257;59723;-72
2023/03/08 10:04:10;;;;;;;8.90;7.60;;;;;;;10.48;63.06;97400.38;109021;1257;64724;-72
2023/03/08 10:06:49;;;;;;;8.00;7.10;;;;;;;10.49;62.83;97401.13;109013;1257;59134;-72
2023/03/08 10:09:36;;;;;;;7.80;7.00;;;;;;;10.58;63.09;97401.33;109020;1257;59070;-72
2023/03/08 10:12:19;;;;;;;7.80;6.90;;;;;;;10.69;61.99;97408.63;109064;1257;66021;-72
2023/03/08 10:14:53;;;;;;;7.40;6.70;;;;;;;10.65;61.13;97416.74;109066;1259;60942;-72
2023/03/08 10:17:25;;;;;;;7.70;6.40;;;;;;;10.52;60.42;97417.86;109062;1257;65137;-72
2023/03/08 10:19:57;;;;;;;8.20;6.90;;;;;;;10.43;60.37;97411.27;108982;1257;59404;-72
2023/03/08 10:22:28;;;;;;;10.40;7.30;;;;;;;10.56;61.55;97407.61;109050;1257;59347;-72
2023/03/08 10:25:20;;;;;;;7.10;6.50;;;;;;;10.75;60.54;97410.59;109035;1257;66903;-72
2023/03/08 10:27:50;;;;;;;8.50;6.80;;;;;;;10.78;60.18;97411.80;109396;1250;59771;-72
2023/03/08 10:30:18;;;;;;;7.00;6.30;;;;;;;10.74;60.85;97408.77;109469;1250;65023;-72
2023/03/08 10:32:49;;;;;;;8.70;7.30;;;;;;;10.81;61.00;97407.73;109633;1250;58940;-72
2023/03/08 10:35:28;;;;;;;7.80;6.80;;;;;;;10.90;61.12;97396.06;109680;1250;58887;-72
2023/03/08 10:37:55;;;;;;;7.60;6.80;;;;;;;11.08;60.50;97395.84;109615;1250;67146;-72
2023/03/08 10:40:22;;;;;;;6.80;6.10;;;;;;;11.15;59.87;97392.99;109646;1250;60831;-72
2023/03/08 10:42:59;;;;;;;8.00;7.20;;;;;;;11.16;59.55;97390.77;109652;1250;64027;-72
2023/03/08 10:45:28;;;;;;;7.20;6.00;;;;;;;11.15;59.10;97397.81;109603;1250;59219;-72
2023/03/08 10:47:58;;;;;;;7.30;6.60;;;;;;;11.01;57.74;97401.22;109632;1250;58976;-71
2023/03/08 10:50:29;;;;;;;8.20;7.40;;;;;;;10.78;56.64;97403.72;109507;1250;142519;-72
2023/03/08 10:53:18;;;;;;;9.60;7.80;;;;;;;10.64;57.71;97401.92;109703;1250;60751;-71
2023/03/08 10:55:48;;;;;;;10.00;7.80;;;;;;;10.66;58.76;97401.19;109648;1250;64994;-72
2023/03/08 10:58:36;;;;;;;;;;;;;;;10.77;58.67;97400.20;109399;1250;59008;-72
2023/03/08 11:01:31;;;;;;;6.90;6.10;;;;;;;10.83;57.54;97401.33;109517;1250;59064;-72
2023/03/08 11:03:57;;;;;;;7.80;6.90;;;;;;;10.90;57.26;97397.79;108992;1257;65657;-72
2023/03/08 11:06:24;;;;;;;8.00;7.20;;;;;;;10.92;56.93;97395.14;109038;1257;61159;-72
2023/03/08 11:08:56;;;;;;;7.70;6.50;;;;;;;10.85;56.91;97391.95;109053;1258;63799;-72
2023/03/08 11:11:23;;;;;;;7.10;5.80;;;;;;;10.80;56.90;97393.48;108994;1257;58999;-71
2023/03/08 11:13:52;;;;;;;6.90;6.10;;;;;;;10.80;55.70;97394.55;109063;1257;59175;-72
2023/03/08 11:16:47;;;;;;;6.40;5.80;;;;;;;10.85;56.21;97389.41;109012;1257;66718;-72
2023/03/08 11:19:45;;;;;;;7.10;6.10;;;;;;;11.03;54.93;97382.81;108984;1259;61358;-72
2023/03/08 11:22:27;;;;;;;8.60;6.00;;;;;;;11.06;54.33;97377.02;109049;1257;63776;-72
2023/03/08 11:25:18;;;;;;;8.60;6.40;;;;;;;11.09;54.55;97373.48;108999;1257;59015;-72
2023/03/08 11:28:18;;;;;;;7.30;6.00;;;;;;;11.06;54.39;97369.73;109012;1257;59057;-72
2023/03/08 11:31:11;;;;;;;8.90;7.40;;;;;;;11.01;53.55;97365.93;109056;1257;66743;-72